sensor_id;sensor_type;location;lat;lon;timestamp;P1;durP1;ratioP1;P2;durP2;ratioP2
72427;SDS011;60419;48.880;18.036;2022-11-06T00:02:08;8.68;;;3.55;;
72427;SDS011;60419;48.880;18.036;2022-11-06T00:04:54;5.97;;;3.40;;
72427;SDS011;60419;48.880;18.036;2022-11-06T00:07:59;11.98;;;4.10;;
72427;SDS011;60419;48.880;18.036;2022-11-06T00:10:44;10.15;;;4.07;;
72427;SDS011;60419;48.880;18.036;2022-11-06T00:13:30;11.98;;;4.20;;
72427;SDS011;60419;48.880;18.036;2022-11-06T00:16:16;10.50;;;3.70;;
72427;SDS011;60419;48.880;18.036;2022-11-06T00:19:01;10.32;;;4.07;;
72427;SDS011;60419;48.880;18.036;2022-11-06T00:21:47;11.40;;;3.78;;
72427;SDS011;60419;48.880;18.036;2022-11-06T00:24:32;6.32;;;3.47;;
72427;SDS011;60419;48.880;18.036;2022-11-06T00:27:18;9.43;;;3.63;;
72427;SDS011;60419;48.880;18.036;2022-11-06T00:30:06;13.02;;;4.05;;
72427;SDS011;60419;48.880;18.036;2022-11-06T00:32:55;7.75;;;3.22;;
72427;SDS011;60419;48.880;18.036;2022-11-06T00:35:41;8.10;;;3.58;;
72427;SDS011;60419;48.880;18.036;2022-11-06T00:38:26;8.38;;;4.20;;
72427;SDS011;60419;48.880;18.036;2022-11-06T00:41:13;11.15;;;4.15;;
72427;SDS011;60419;48.880;18.036;2022-11-06T00:44:00;16.83;;;4.47;;
72427;SDS011;60419;48.880;18.036;2022-11-06T00:46:46;11.48;;;4.30;;
72427;SDS011;60419;48.880;18.036;2022-11-06T00:49:32;11.02;;;4.22;;
72427;SDS011;60419;48.880;18.036;2022-11-06T00:52:17;9.00;;;4.20;;
72427;SDS011;60419;48.880;18.036;2022-11-06T00:55:02;8.82;;;4.32;;
72427;SDS011;60419;48.880;18.036;2022-11-06T00:57:48;8.82;;;4.50;;
72427;SDS011;60419;48.880;18.036;2022-11-06T01:00:33;11.73;;;3.83;;
72427;SDS011;60419;48.880;18.036;2022-11-06T01:03:19;8.60;;;3.83;;
72427;SDS011;60419;48.880;18.036;2022-11-06T01:06:08;7.40;;;3.70;;
72427;SDS011;60419;48.880;18.036;2022-11-06T01:08:54;7.80;;;4.20;;
72427;SDS011;60419;48.880;18.036;2022-11-06T01:11:42;10.93;;;3.85;;
72427;SDS011;60419;48.880;18.036;2022-11-06T01:14:29;10.80;;;4.20;;
72427;SDS011;60419;48.880;18.036;2022-11-06T01:17:15;10.52;;;4.05;;
72427;SDS011;60419;48.880;18.036;2022-11-06T01:20:00;8.40;;;3.92;;
72427;SDS011;60419;48.880;18.036;2022-11-06T01:22:47;11.10;;;4.28;;
72427;SDS011;60419;48.880;18.036;2022-11-06T01:25:32;13.95;;;4.20;;
72427;SDS011;60419;48.880;18.036;2022-11-06T01:28:18;11.43;;;4.78;;
72427;SDS011;60419;48.880;18.036;2022-11-06T01:31:11;11.98;;;4.43;;
72427;SDS011;60419;48.880;18.036;2022-11-06T01:34:00;11.48;;;4.47;;
72427;SDS011;60419;48.880;18.036;2022-11-06T01:36:46;10.10;;;4.13;;
72427;SDS011;60419;48.880;18.036;2022-11-06T01:39:31;10.75;;;4.50;;
72427;SDS011;60419;48.880;18.036;2022-11-06T01:42:18;12.82;;;4.47;;
72427;SDS011;60419;48.880;18.036;2022-11-06T01:45:14;13.00;;;4.55;;
72427;SDS011;60419;48.880;18.036;2022-11-06T01:48:08;9.40;;;4.60;;
72427;SDS011;60419;48.880;18.036;2022-11-06T01:50:55;12.38;;;4.65;;
72427;SDS011;60419;48.880;18.036;2022-11-06T01:53:43;7.97;;;4.05;;
72427;SDS011;60419;48.880;18.036;2022-11-06T01:56:29;15.75;;;5.00;;
72427;SDS011;60419;48.880;18.036;2022-11-06T01:59:15;9.50;;;4.22;;
72427;SDS011;60419;48.880;18.036;2022-11-06T02:04:51;11.30;;;4.70;;
72427;SDS011;60419;48.880;18.036;2022-11-06T02:07:36;10.52;;;5.10;;
72427;SDS011;60419;48.880;18.036;2022-11-06T02:10:24;12.43;;;4.63;;
72427;SDS011;60419;48.880;18.036;2022-11-06T02:19:43;12.30;;;4.65;;
72427;SDS011;60419;48.880;18.036;2022-11-06T02:23:55;12.63;;;4.88;;
72427;SDS011;60419;48.880;18.036;2022-11-06T02:27:08;13.07;;;4.60;;
72427;SDS011;60419;48.880;18.036;2022-11-06T02:32:53;13.33;;;4.80;;
72427;SDS011;60419;48.880;18.036;2022-11-06T02:35:44;9.77;;;4.70;;
72427;SDS011;60419;48.880;18.036;2022-11-06T02:38:43;12.82;;;4.40;;
72427;SDS011;60419;48.880;18.036;2022-11-06T02:41:33;11.55;;;5.10;;
72427;SDS011;60419;48.880;18.036;2022-11-06T02:44:23;8.32;;;3.95;;
72427;SDS011;60419;48.880;18.036;2022-11-06T02:47:11;10.57;;;4.82;;
72427;SDS011;60419;48.880;18.036;2022-11-06T02:50:03;10.32;;;5.25;;
72427;SDS011;60419;48.880;18.036;2022-11-06T02:52:54;10.80;;;4.78;;
72427;SDS011;60419;48.880;18.036;2022-11-06T02:55:45;11.15;;;4.97;;
72427;SDS011;60419;48.880;18.036;2022-11-06T02:58:37;8.90;;;4.22;;
72427;SDS011;60419;48.880;18.036;2022-11-06T03:01:32;12.38;;;4.95;;
72427;SDS011;60419;48.880;18.036;2022-11-06T03:04:22;15.02;;;5.35;;
72427;SDS011;60419;48.880;18.036;2022-11-06T03:07:24;11.60;;;4.45;;
72427;SDS011;60419;48.880;18.036;2022-11-06T03:10:15;17.20;;;5.80;;
72427;SDS011;60419;48.880;18.036;2022-11-06T03:13:05;10.10;;;4.80;;
72427;SDS011;60419;48.880;18.036;2022-11-06T03:19:10;11.68;;;5.00;;
72427;SDS011;60419;48.880;18.036;2022-11-06T03:28:01;16.13;;;6.22;;
72427;SDS011;60419;48.880;18.036;2022-11-06T03:30:54;12.82;;;4.72;;
72427;SDS011;60419;48.880;18.036;2022-11-06T03:33:46;11.13;;;4.95;;
72427;SDS011;60419;48.880;18.036;2022-11-06T03:36:39;14.13;;;5.57;;
72427;SDS011;60419;48.880;18.036;2022-11-06T03:39:35;9.77;;;5.13;;
72427;SDS011;60419;48.880;18.036;2022-11-06T03:42:25;10.43;;;5.13;;
72427;SDS011;60419;48.880;18.036;2022-11-06T03:45:16;9.43;;;4.93;;
72427;SDS011;60419;48.880;18.036;2022-11-06T03:48:09;11.80;;;5.22;;
72427;SDS011;60419;48.880;18.036;2022-11-06T03:53:52;11.20;;;5.22;;
72427;SDS011;60419;48.880;18.036;2022-11-06T03:56:46;13.07;;;5.55;;
72427;SDS011;60419;48.880;18.036;2022-11-06T03:59:38;12.32;;;5.10;;
72427;SDS011;60419;48.880;18.036;2022-11-06T04:02:30;13.00;;;5.82;;
72427;SDS011;60419;48.880;18.036;2022-11-06T04:05:20;13.35;;;5.25;;
72427;SDS011;60419;48.880;18.036;2022-11-06T04:08:08;12.20;;;4.90;;
72427;SDS011;60419;48.880;18.036;2022-11-06T04:11:15;12.63;;;5.25;;
72427;SDS011;60419;48.880;18.036;2022-11-06T04:14:24;10.40;;;5.03;;
72427;SDS011;60419;48.880;18.036;2022-11-06T04:17:11;10.90;;;5.32;;
72427;SDS011;60419;48.880;18.036;2022-11-06T04:19:59;14.57;;;4.93;;
72427;SDS011;60419;48.880;18.036;2022-11-06T04:25:56;9.45;;;4.63;;
72427;SDS011;60419;48.880;18.036;2022-11-06T04:32:16;11.52;;;4.57;;
72427;SDS011;60419;48.880;18.036;2022-11-06T04:41:42;10.00;;;4.72;;
72427;SDS011;60419;48.880;18.036;2022-11-06T04:44:51;9.90;;;3.90;;
72427;SDS011;60419;48.880;18.036;2022-11-06T04:47:42;8.82;;;3.90;;
72427;SDS011;60419;48.880;18.036;2022-11-06T04:50:29;10.50;;;4.13;;
72427;SDS011;60419;48.880;18.036;2022-11-06T04:53:20;15.23;;;5.97;;
72427;SDS011;60419;48.880;18.036;2022-11-06T04:56:09;10.02;;;4.90;;
72427;SDS011;60419;48.880;18.036;2022-11-06T04:58:56;10.90;;;4.22;;
72427;SDS011;60419;48.880;18.036;2022-11-06T05:01:41;8.95;;;3.95;;
72427;SDS011;60419;48.880;18.036;2022-11-06T05:04:27;8.10;;;4.18;;
72427;SDS011;60419;48.880;18.036;2022-11-06T05:07:12;10.13;;;4.60;;
72427;SDS011;60419;48.880;18.036;2022-11-06T05:09:59;9.45;;;4.40;;
72427;SDS011;60419;48.880;18.036;2022-11-06T05:12:46;8.75;;;3.83;;
72427;SDS011;60419;48.880;18.036;2022-11-06T05:15:31;9.25;;;3.85;;
72427;SDS011;60419;48.880;18.036;2022-11-06T05:18:16;10.52;;;4.45;;
72427;SDS011;60419;48.880;18.036;2022-11-06T05:21:02;12.18;;;4.68;;
72427;SDS011;60419;48.880;18.036;2022-11-06T05:24:07;7.82;;;3.33;;
72427;SDS011;60419;48.880;18.036;2022-11-06T05:26:52;8.05;;;3.83;;
72427;SDS011;60419;48.880;18.036;2022-11-06T05:29:37;10.35;;;4.50;;
72427;SDS011;60419;48.880;18.036;2022-11-06T05:32:23;9.10;;;4.22;;
72427;SDS011;60419;48.880;18.036;2022-11-06T05:35:09;10.85;;;4.53;;
72427;SDS011;60419;48.880;18.036;2022-11-06T05:38:01;11.18;;;4.32;;
72427;SDS011;60419;48.880;18.036;2022-11-06T05:40:46;10.50;;;4.90;;
72427;SDS011;60419;48.880;18.036;2022-11-06T05:43:32;10.85;;;4.70;;
72427;SDS011;60419;48.880;18.036;2022-11-06T05:46:17;11.70;;;4.80;;
72427;SDS011;60419;48.880;18.036;2022-11-06T05:49:03;13.85;;;5.25;;
72427;SDS011;60419;48.880;18.036;2022-11-06T05:51:48;11.73;;;4.93;;
72427;SDS011;60419;48.880;18.036;2022-11-06T05:54:33;13.18;;;5.28;;
72427;SDS011;60419;48.880;18.036;2022-11-06T05:57:19;8.90;;;4.40;;
72427;SDS011;60419;48.880;18.036;2022-11-06T06:00:04;14.80;;;5.05;;
72427;SDS011;60419;48.880;18.036;2022-11-06T06:02:51;8.15;;;4.68;;
72427;SDS011;60419;48.880;18.036;2022-11-06T06:05:36;13.50;;;5.22;;
72427;SDS011;60419;48.880;18.036;2022-11-06T06:08:22;11.40;;;4.90;;
72427;SDS011;60419;48.880;18.036;2022-11-06T06:11:07;9.57;;;4.68;;
72427;SDS011;60419;48.880;18.036;2022-11-06T06:13:53;13.82;;;5.63;;
72427;SDS011;60419;48.880;18.036;2022-11-06T06:16:39;14.98;;;5.45;;
72427;SDS011;60419;48.880;18.036;2022-11-06T06:19:24;9.57;;;5.10;;
72427;SDS011;60419;48.880;18.036;2022-11-06T06:22:10;11.07;;;5.15;;
72427;SDS011;60419;48.880;18.036;2022-11-06T06:24:55;13.60;;;4.95;;
72427;SDS011;60419;48.880;18.036;2022-11-06T06:27:40;15.98;;;6.00;;
72427;SDS011;60419;48.880;18.036;2022-11-06T06:30:26;11.50;;;5.28;;
72427;SDS011;60419;48.880;18.036;2022-11-06T06:33:11;12.10;;;5.65;;
72427;SDS011;60419;48.880;18.036;2022-11-06T06:35:56;14.13;;;5.32;;
72427;SDS011;60419;48.880;18.036;2022-11-06T06:38:42;12.32;;;5.13;;
72427;SDS011;60419;48.880;18.036;2022-11-06T06:41:27;12.85;;;5.32;;
72427;SDS011;60419;48.880;18.036;2022-11-06T06:44:12;10.75;;;5.68;;
72427;SDS011;60419;48.880;18.036;2022-11-06T06:46:58;15.45;;;5.60;;
72427;SDS011;60419;48.880;18.036;2022-11-06T06:49:44;11.98;;;5.10;;
72427;SDS011;60419;48.880;18.036;2022-11-06T06:52:29;10.20;;;4.93;;
72427;SDS011;60419;48.880;18.036;2022-11-06T06:55:15;10.93;;;5.18;;
72427;SDS011;60419;48.880;18.036;2022-11-06T06:58:01;10.27;;;4.93;;
72427;SDS011;60419;48.880;18.036;2022-11-06T07:00:47;9.00;;;4.97;;
72427;SDS011;60419;48.880;18.036;2022-11-06T07:03:32;12.45;;;5.05;;
72427;SDS011;60419;48.880;18.036;2022-11-06T07:06:18;15.30;;;5.90;;
72427;SDS011;60419;48.880;18.036;2022-11-06T07:09:03;14.82;;;5.85;;
72427;SDS011;60419;48.880;18.036;2022-11-06T07:11:49;12.35;;;5.05;;
72427;SDS011;60419;48.880;18.036;2022-11-06T07:14:35;9.40;;;4.55;;
72427;SDS011;60419;48.880;18.036;2022-11-06T07:17:20;8.85;;;4.53;;
72427;SDS011;60419;48.880;18.036;2022-11-06T07:20:05;10.20;;;5.13;;
72427;SDS011;60419;48.880;18.036;2022-11-06T07:22:51;12.38;;;5.55;;
72427;SDS011;60419;48.880;18.036;2022-11-06T07:25:37;14.88;;;5.75;;
72427;SDS011;60419;48.880;18.036;2022-11-06T07:28:22;13.57;;;6.28;;
72427;SDS011;60419;48.880;18.036;2022-11-06T07:31:08;13.27;;;5.57;;
72427;SDS011;60419;48.880;18.036;2022-11-06T07:33:53;12.27;;;6.15;;
72427;SDS011;60419;48.880;18.036;2022-11-06T07:36:39;12.90;;;5.43;;
72427;SDS011;60419;48.880;18.036;2022-11-06T07:39:24;9.68;;;5.20;;
72427;SDS011;60419;48.880;18.036;2022-11-06T07:42:09;14.68;;;7.40;;
72427;SDS011;60419;48.880;18.036;2022-11-06T07:44:55;12.13;;;6.72;;
72427;SDS011;60419;48.880;18.036;2022-11-06T07:47:40;12.65;;;5.72;;
72427;SDS011;60419;48.880;18.036;2022-11-06T07:50:26;12.13;;;5.40;;
72427;SDS011;60419;48.880;18.036;2022-11-06T07:53:11;9.63;;;5.57;;
72427;SDS011;60419;48.880;18.036;2022-11-06T07:55:57;9.30;;;4.95;;
72427;SDS011;60419;48.880;18.036;2022-11-06T07:58:42;12.93;;;5.70;;
72427;SDS011;60419;48.880;18.036;2022-11-06T08:01:27;10.63;;;5.45;;
72427;SDS011;60419;48.880;18.036;2022-11-06T08:04:13;10.02;;;5.35;;
72427;SDS011;60419;48.880;18.036;2022-11-06T08:06:58;11.98;;;5.90;;
72427;SDS011;60419;48.880;18.036;2022-11-06T08:09:44;11.95;;;6.68;;
72427;SDS011;60419;48.880;18.036;2022-11-06T08:12:29;10.32;;;5.80;;
72427;SDS011;60419;48.880;18.036;2022-11-06T08:15:14;14.20;;;6.60;;
72427;SDS011;60419;48.880;18.036;2022-11-06T08:18:00;15.98;;;6.38;;
72427;SDS011;60419;48.880;18.036;2022-11-06T08:20:45;13.20;;;5.82;;
72427;SDS011;60419;48.880;18.036;2022-11-06T08:23:30;10.10;;;5.53;;
72427;SDS011;60419;48.880;18.036;2022-11-06T08:26:16;10.88;;;5.78;;
72427;SDS011;60419;48.880;18.036;2022-11-06T08:29:02;15.98;;;6.82;;
72427;SDS011;60419;48.880;18.036;2022-11-06T08:31:47;14.30;;;7.03;;
72427;SDS011;60419;48.880;18.036;2022-11-06T08:34:33;14.25;;;6.10;;
72427;SDS011;60419;48.880;18.036;2022-11-06T08:37:19;13.52;;;6.47;;
72427;SDS011;60419;48.880;18.036;2022-11-06T08:40:05;10.70;;;6.32;;
72427;SDS011;60419;48.880;18.036;2022-11-06T08:42:51;15.13;;;6.80;;
72427;SDS011;60419;48.880;18.036;2022-11-06T08:45:37;9.35;;;4.97;;
72427;SDS011;60419;48.880;18.036;2022-11-06T08:48:23;13.10;;;6.70;;
72427;SDS011;60419;48.880;18.036;2022-11-06T08:51:09;11.13;;;6.03;;
72427;SDS011;60419;48.880;18.036;2022-11-06T08:53:54;12.43;;;6.70;;
72427;SDS011;60419;48.880;18.036;2022-11-06T08:56:39;12.48;;;6.40;;
72427;SDS011;60419;48.880;18.036;2022-11-06T08:59:25;13.10;;;5.82;;
72427;SDS011;60419;48.880;18.036;2022-11-06T09:02:13;11.48;;;6.22;;
72427;SDS011;60419;48.880;18.036;2022-11-06T09:04:59;12.43;;;5.60;;
72427;SDS011;60419;48.880;18.036;2022-11-06T09:07:44;11.35;;;6.47;;
72427;SDS011;60419;48.880;18.036;2022-11-06T09:10:30;12.02;;;6.45;;
72427;SDS011;60419;48.880;18.036;2022-11-06T09:13:15;13.32;;;6.57;;
72427;SDS011;60419;48.880;18.036;2022-11-06T09:16:00;14.70;;;6.30;;
72427;SDS011;60419;48.880;18.036;2022-11-06T09:18:46;14.25;;;6.57;;
72427;SDS011;60419;48.880;18.036;2022-11-06T09:21:31;14.95;;;7.07;;
72427;SDS011;60419;48.880;18.036;2022-11-06T09:24:17;13.05;;;6.30;;
72427;SDS011;60419;48.880;18.036;2022-11-06T09:27:02;13.13;;;6.85;;
72427;SDS011;60419;48.880;18.036;2022-11-06T09:29:47;12.15;;;7.00;;
72427;SDS011;60419;48.880;18.036;2022-11-06T09:32:33;15.52;;;7.22;;
72427;SDS011;60419;48.880;18.036;2022-11-06T09:35:19;18.02;;;7.43;;
72427;SDS011;60419;48.880;18.036;2022-11-06T09:38:07;12.50;;;5.75;;
72427;SDS011;60419;48.880;18.036;2022-11-06T09:40:55;10.82;;;6.03;;
72427;SDS011;60419;48.880;18.036;2022-11-06T09:46:44;14.32;;;7.25;;
72427;SDS011;60419;48.880;18.036;2022-11-06T09:49:32;11.23;;;6.25;;
72427;SDS011;60419;48.880;18.036;2022-11-06T09:52:41;11.10;;;6.30;;
72427;SDS011;60419;48.880;18.036;2022-11-06T09:55:32;10.73;;;6.13;;
72427;SDS011;60419;48.880;18.036;2022-11-06T09:58:24;10.82;;;5.70;;
72427;SDS011;60419;48.880;18.036;2022-11-06T10:01:19;11.68;;;5.90;;
72427;SDS011;60419;48.880;18.036;2022-11-06T10:04:09;10.75;;;6.32;;
72427;SDS011;60419;48.880;18.036;2022-11-06T10:10:49;15.75;;;6.00;;
72427;SDS011;60419;48.880;18.036;2022-11-06T10:20:11;11.98;;;6.22;;
72427;SDS011;60419;48.880;18.036;2022-11-06T10:23:04;11.68;;;6.10;;
72427;SDS011;60419;48.880;18.036;2022-11-06T10:29:11;11.25;;;6.43;;
72427;SDS011;60419;48.880;18.036;2022-11-06T10:35:39;12.88;;;6.53;;
72427;SDS011;60419;48.880;18.036;2022-11-06T10:38:42;13.05;;;6.43;;
72427;SDS011;60419;48.880;18.036;2022-11-06T10:41:31;10.10;;;5.95;;
72427;SDS011;60419;48.880;18.036;2022-11-06T10:44:31;12.15;;;6.50;;
72427;SDS011;60419;48.880;18.036;2022-11-06T10:47:22;10.20;;;5.97;;
72427;SDS011;60419;48.880;18.036;2022-11-06T10:50:12;10.55;;;6.20;;
72427;SDS011;60419;48.880;18.036;2022-11-06T10:58:30;11.45;;;6.15;;
72427;SDS011;60419;48.880;18.036;2022-11-06T11:01:17;12.07;;;5.97;;
72427;SDS011;60419;48.880;18.036;2022-11-06T11:04:02;16.27;;;6.53;;
72427;SDS011;60419;48.880;18.036;2022-11-06T11:06:49;12.82;;;6.30;;
72427;SDS011;60419;48.880;18.036;2022-11-06T11:09:34;15.98;;;7.00;;
72427;SDS011;60419;48.880;18.036;2022-11-06T11:12:21;13.27;;;7.10;;
72427;SDS011;60419;48.880;18.036;2022-11-06T11:21:02;14.98;;;6.80;;
72427;SDS011;60419;48.880;18.036;2022-11-06T11:27:27;12.00;;;6.82;;
72427;SDS011;60419;48.880;18.036;2022-11-06T11:29:58;12.57;;;6.60;;
72427;SDS011;60419;48.880;18.036;2022-11-06T11:32:43;14.20;;;7.00;;
72427;SDS011;60419;48.880;18.036;2022-11-06T11:35:29;15.98;;;8.95;;
72427;SDS011;60419;48.880;18.036;2022-11-06T11:38:16;10.10;;;6.10;;
72427;SDS011;60419;48.880;18.036;2022-11-06T11:44:33;14.63;;;6.80;;
72427;SDS011;60419;48.880;18.036;2022-11-06T11:47:06;9.93;;;6.35;;
72427;SDS011;60419;48.880;18.036;2022-11-06T11:53:09;13.13;;;7.22;;
72427;SDS011;60419;48.880;18.036;2022-11-06T11:56:02;13.95;;;6.88;;
72427;SDS011;60419;48.880;18.036;2022-11-06T11:58:50;13.25;;;6.90;;
72427;SDS011;60419;48.880;18.036;2022-11-06T12:01:38;14.88;;;7.68;;
72427;SDS011;60419;48.880;18.036;2022-11-06T12:07:21;14.15;;;7.60;;
72427;SDS011;60419;48.880;18.036;2022-11-06T12:13:19;12.25;;;7.30;;
72427;SDS011;60419;48.880;18.036;2022-11-06T12:16:06;12.40;;;7.22;;
72427;SDS011;60419;48.880;18.036;2022-11-06T12:18:59;15.02;;;7.57;;
72427;SDS011;60419;48.880;18.036;2022-11-06T12:21:48;12.55;;;6.60;;
72427;SDS011;60419;48.880;18.036;2022-11-06T12:24:44;10.57;;;6.80;;
72427;SDS011;60419;48.880;18.036;2022-11-06T12:27:45;14.73;;;7.03;;
72427;SDS011;60419;48.880;18.036;2022-11-06T12:30:35;15.20;;;8.32;;
72427;SDS011;60419;48.880;18.036;2022-11-06T12:33:21;12.43;;;7.50;;
72427;SDS011;60419;48.880;18.036;2022-11-06T12:36:11;10.57;;;6.30;;
72427;SDS011;60419;48.880;18.036;2022-11-06T12:39:03;12.55;;;6.60;;
72427;SDS011;60419;48.880;18.036;2022-11-06T12:41:56;11.50;;;5.93;;
72427;SDS011;60419;48.880;18.036;2022-11-06T12:44:41;10.73;;;6.05;;
72427;SDS011;60419;48.880;18.036;2022-11-06T12:50:53;10.85;;;6.22;;
72427;SDS011;60419;48.880;18.036;2022-11-06T12:53:59;10.25;;;5.40;;
72427;SDS011;60419;48.880;18.036;2022-11-06T12:57:10;9.68;;;5.57;;
72427;SDS011;60419;48.880;18.036;2022-11-06T13:00:03;10.70;;;5.88;;
72427;SDS011;60419;48.880;18.036;2022-11-06T13:06:17;9.48;;;5.80;;
72427;SDS011;60419;48.880;18.036;2022-11-06T13:09:13;11.40;;;5.82;;
72427;SDS011;60419;48.880;18.036;2022-11-06T13:15:35;11.35;;;5.90;;
72427;SDS011;60419;48.880;18.036;2022-11-06T13:18:28;9.02;;;5.68;;
72427;SDS011;60419;48.880;18.036;2022-11-06T13:24:31;11.00;;;6.18;;
72427;SDS011;60419;48.880;18.036;2022-11-06T13:27:51;10.55;;;5.97;;
72427;SDS011;60419;48.880;18.036;2022-11-06T13:30:44;11.23;;;7.00;;
72427;SDS011;60419;48.880;18.036;2022-11-06T13:33:33;14.10;;;6.35;;
72427;SDS011;60419;48.880;18.036;2022-11-06T13:36:22;12.43;;;6.30;;
72427;SDS011;60419;48.880;18.036;2022-11-06T13:45:08;13.95;;;6.45;;
72427;SDS011;60419;48.880;18.036;2022-11-06T13:48:02;11.15;;;6.38;;
72427;SDS011;60419;48.880;18.036;2022-11-06T13:51:07;11.32;;;6.25;;
72427;SDS011;60419;48.880;18.036;2022-11-06T13:54:00;11.88;;;5.93;;
72427;SDS011;60419;48.880;18.036;2022-11-06T14:03:35;11.38;;;6.65;;
72427;SDS011;60419;48.880;18.036;2022-11-06T14:06:45;9.25;;;5.95;;
72427;SDS011;60419;48.880;18.036;2022-11-06T14:09:36;9.75;;;6.28;;
72427;SDS011;60419;48.880;18.036;2022-11-06T14:12:27;10.75;;;6.00;;
72427;SDS011;60419;48.880;18.036;2022-11-06T14:18:04;12.27;;;6.15;;
72427;SDS011;60419;48.880;18.036;2022-11-06T14:20:51;11.55;;;6.05;;
72427;SDS011;60419;48.880;18.036;2022-11-06T14:24:16;10.63;;;6.10;;
72427;SDS011;60419;48.880;18.036;2022-11-06T14:30:17;11.38;;;6.28;;
72427;SDS011;60419;48.880;18.036;2022-11-06T14:39:09;11.40;;;6.35;;
72427;SDS011;60419;48.880;18.036;2022-11-06T14:41:57;11.52;;;6.82;;
72427;SDS011;60419;48.880;18.036;2022-11-06T14:44:44;11.77;;;6.95;;
72427;SDS011;60419;48.880;18.036;2022-11-06T14:47:36;11.52;;;6.60;;
72427;SDS011;60419;48.880;18.036;2022-11-06T14:50:26;13.57;;;6.78;;
72427;SDS011;60419;48.880;18.036;2022-11-06T14:53:18;13.23;;;6.95;;
72427;SDS011;60419;48.880;18.036;2022-11-06T14:56:07;15.05;;;7.25;;
72427;SDS011;60419;48.880;18.036;2022-11-06T14:59:05;12.70;;;7.78;;
72427;SDS011;60419;48.880;18.036;2022-11-06T15:02:14;14.70;;;7.30;;
72427;SDS011;60419;48.880;18.036;2022-11-06T15:05:07;12.90;;;6.38;;
72427;SDS011;60419;48.880;18.036;2022-11-06T15:08:01;12.75;;;6.72;;
72427;SDS011;60419;48.880;18.036;2022-11-06T15:10:48;54.50;;;29.95;;
72427;SDS011;60419;48.880;18.036;2022-11-06T15:13:35;19.77;;;10.73;;
72427;SDS011;60419;48.880;18.036;2022-11-06T15:16:20;16.50;;;10.20;;
72427;SDS011;60419;48.880;18.036;2022-11-06T15:22:42;12.65;;;7.28;;
72427;SDS011;60419;48.880;18.036;2022-11-06T15:25:36;13.45;;;8.40;;
72427;SDS011;60419;48.880;18.036;2022-11-06T15:28:45;16.77;;;8.25;;
72427;SDS011;60419;48.880;18.036;2022-11-06T15:31:34;16.55;;;7.75;;
72427;SDS011;60419;48.880;18.036;2022-11-06T15:34:30;16.38;;;8.50;;
72427;SDS011;60419;48.880;18.036;2022-11-06T15:37:22;18.08;;;9.18;;
72427;SDS011;60419;48.880;18.036;2022-11-06T15:46:05;14.35;;;7.65;;
72427;SDS011;60419;48.880;18.036;2022-11-06T15:49:15;19.83;;;8.57;;
72427;SDS011;60419;48.880;18.036;2022-11-06T15:52:04;17.73;;;8.45;;
72427;SDS011;60419;48.880;18.036;2022-11-06T15:54:51;19.27;;;8.80;;
72427;SDS011;60419;48.880;18.036;2022-11-06T15:57:37;18.65;;;8.63;;
72427;SDS011;60419;48.880;18.036;2022-11-06T16:00:23;18.25;;;9.65;;
72427;SDS011;60419;48.880;18.036;2022-11-06T16:03:13;20.70;;;10.52;;
72427;SDS011;60419;48.880;18.036;2022-11-06T16:06:00;24.88;;;13.07;;
72427;SDS011;60419;48.880;18.036;2022-11-06T16:08:47;30.45;;;15.00;;
72427;SDS011;60419;48.880;18.036;2022-11-06T16:11:35;36.55;;;16.38;;
72427;SDS011;60419;48.880;18.036;2022-11-06T16:14:21;53.28;;;27.58;;
72427;SDS011;60419;48.880;18.036;2022-11-06T16:17:08;19.63;;;11.38;;
72427;SDS011;60419;48.880;18.036;2022-11-06T16:20:11;20.63;;;10.00;;
72427;SDS011;60419;48.880;18.036;2022-11-06T16:25:47;22.10;;;9.73;;
72427;SDS011;60419;48.880;18.036;2022-11-06T16:28:32;20.60;;;12.13;;
72427;SDS011;60419;48.880;18.036;2022-11-06T16:31:22;19.63;;;11.05;;
72427;SDS011;60419;48.880;18.036;2022-11-06T16:37:05;15.73;;;9.75;;
72427;SDS011;60419;48.880;18.036;2022-11-06T16:43:38;17.95;;;10.15;;
72427;SDS011;60419;48.880;18.036;2022-11-06T16:46:24;19.80;;;10.65;;
72427;SDS011;60419;48.880;18.036;2022-11-06T16:49:48;19.15;;;11.13;;
72427;SDS011;60419;48.880;18.036;2022-11-06T16:52:38;16.63;;;8.80;;
72427;SDS011;60419;48.880;18.036;2022-11-06T16:55:24;18.02;;;10.45;;
72427;SDS011;60419;48.880;18.036;2022-11-06T16:58:13;14.02;;;7.03;;
72427;SDS011;60419;48.880;18.036;2022-11-06T17:01:02;22.08;;;11.98;;
72427;SDS011;60419;48.880;18.036;2022-11-06T17:03:54;19.77;;;11.68;;
72427;SDS011;60419;48.880;18.036;2022-11-06T17:06:43;21.30;;;11.65;;
72427;SDS011;60419;48.880;18.036;2022-11-06T17:09:32;18.80;;;10.35;;
72427;SDS011;60419;48.880;18.036;2022-11-06T17:12:18;15.05;;;9.85;;
72427;SDS011;60419;48.880;18.036;2022-11-06T17:15:04;15.98;;;9.50;;
72427;SDS011;60419;48.880;18.036;2022-11-06T17:17:50;14.75;;;7.90;;
72427;SDS011;60419;48.880;18.036;2022-11-06T17:20:35;12.05;;;7.38;;
72427;SDS011;60419;48.880;18.036;2022-11-06T17:23:22;15.05;;;8.18;;
72427;SDS011;60419;48.880;18.036;2022-11-06T17:26:13;16.08;;;10.27;;
72427;SDS011;60419;48.880;18.036;2022-11-06T17:28:58;14.90;;;9.67;;
72427;SDS011;60419;48.880;18.036;2022-11-06T17:31:44;16.40;;;8.82;;
72427;SDS011;60419;48.880;18.036;2022-11-06T17:34:30;15.35;;;8.70;;
72427;SDS011;60419;48.880;18.036;2022-11-06T17:37:16;15.52;;;8.57;;
72427;SDS011;60419;48.880;18.036;2022-11-06T17:40:05;15.73;;;8.13;;
72427;SDS011;60419;48.880;18.036;2022-11-06T17:42:51;17.42;;;8.68;;
72427;SDS011;60419;48.880;18.036;2022-11-06T17:45:37;15.88;;;9.23;;
72427;SDS011;60419;48.880;18.036;2022-11-06T17:48:24;14.77;;;7.97;;
72427;SDS011;60419;48.880;18.036;2022-11-06T17:51:09;16.50;;;9.23;;
72427;SDS011;60419;48.880;18.036;2022-11-06T17:54:13;15.93;;;9.05;;
72427;SDS011;60419;48.880;18.036;2022-11-06T17:57:00;19.88;;;11.43;;
72427;SDS011;60419;48.880;18.036;2022-11-06T17:59:47;21.33;;;11.00;;
72427;SDS011;60419;48.880;18.036;2022-11-06T18:02:32;15.98;;;9.07;;
72427;SDS011;60419;48.880;18.036;2022-11-06T18:05:17;17.20;;;10.55;;
72427;SDS011;60419;48.880;18.036;2022-11-06T18:08:03;25.90;;;13.00;;
72427;SDS011;60419;48.880;18.036;2022-11-06T18:10:54;23.58;;;12.10;;
72427;SDS011;60419;48.880;18.036;2022-11-06T18:13:40;54.15;;;24.98;;
72427;SDS011;60419;48.880;18.036;2022-11-06T18:16:26;38.65;;;19.88;;
72427;SDS011;60419;48.880;18.036;2022-11-06T18:19:14;14.35;;;9.02;;
72427;SDS011;60419;48.880;18.036;2022-11-06T18:22:01;17.48;;;9.90;;
72427;SDS011;60419;48.880;18.036;2022-11-06T18:24:47;25.98;;;13.00;;
72427;SDS011;60419;48.880;18.036;2022-11-06T18:27:32;32.63;;;17.70;;
72427;SDS011;60419;48.880;18.036;2022-11-06T18:30:17;30.20;;;15.20;;
72427;SDS011;60419;48.880;18.036;2022-11-06T18:33:03;30.42;;;16.98;;
72427;SDS011;60419;48.880;18.036;2022-11-06T18:35:48;26.80;;;14.05;;
72427;SDS011;60419;48.880;18.036;2022-11-06T18:38:34;22.67;;;14.45;;
72427;SDS011;60419;48.880;18.036;2022-11-06T18:41:20;25.13;;;13.50;;
72427;SDS011;60419;48.880;18.036;2022-11-06T18:44:06;20.50;;;11.30;;
72427;SDS011;60419;48.880;18.036;2022-11-06T18:46:51;18.77;;;9.68;;
72427;SDS011;60419;48.880;18.036;2022-11-06T18:49:36;14.23;;;8.45;;
72427;SDS011;60419;48.880;18.036;2022-11-06T18:52:22;17.00;;;10.07;;